This is the latest recevied weather packets stored in our database for station/object KE7JGM-4. If no packets are shown the sender has not sent any weather packets the latest 10 day(s).
| Time | Temp. | Humidity | Pressure | Rain* | Wind** | Luminosity | Snow |
|---|---|---|---|---|---|---|---|
| 1777868137 | 16.67° C | 33% | 1018.7 hPa | 0 mm | - | - | - |
| 1777853757 | 21.11° C | 21% | 1016.2 hPa | 0 mm | - | - | - |
| 1777848316 | 22.22° C | 23% | 1017 hPa | 0 mm | - | - | - |
| 1777847416 | 22.78° C | 23% | 1017.3 hPa | 0 mm | - | - | - |
| 1777845617 | 22.78° C | 24% | 1018 hPa | 0 mm | - | - | - |
| 1777840216 | 22.78° C | 21% | 1019.5 hPa | 0 mm | - | - | - |
| 1777839316 | 22.22° C | 23% | 1019.4 hPa | 0 mm | - | - | - |
| 1777838416 | 22.78° C | 23% | 1019.8 hPa | 0 mm | - | - | - |
| 1777836616 | 22.22° C | 25% | 1019.8 hPa | 0 mm | - | - | - |
| 1777833916 | 21.11° C | 32% | 1020 hPa | 0 mm | - | - | - |
| 1777832116 | 21.67° C | 31% | 1020.5 hPa | 0 mm | - | - | - |
| 1777829416 | 21.67° C | 32% | 1021 hPa | 0 mm | - | - | - |
| 1777827616 | 21.11° C | 34% | 1021.5 hPa | 0 mm | - | - | - |
| 1777820416 | 17.78° C | 37% | 1021.8 hPa | 0 mm | - | - | - |
| 1777819536 | 17.78° C | 37% | 1022.2 hPa | 0 mm | - | - | - |
| 1777817736 | 14.44° C | 41% | 1021.1 hPa | 0 mm | - | - | - |
| 1777802418 | 12.78° C | 37% | 1021.9 hPa | 0 mm | - | - | - |
| 1777801517 | 12.78° C | 36% | 1022 hPa | 0 mm | - | - | - |
| 1777800657 | 12.78° C | 36% | 1022.2 hPa | 0 mm | - | - | - |
| 1777797937 | 12.78° C | 36% | 1022.7 hPa | 0 mm | - | - | - |
| 1777790717 | 12.78° C | 38% | 1023.2 hPa | 0 mm | - | - | - |
| 1777787137 | 13.33° C | 37% | 1022.7 hPa | 0 mm | - | - | - |
| 1777784417 | 14.44° C | 35% | 1022.8 hPa | 0 mm | - | - | - |
| 1777783517 | 14.44° C | 34% | 1022.7 hPa | 0 mm | - | - | - |
| 1777780817 | 16.11° C | 32% | 1022.1 hPa | 0 mm | - | - | - |
* Rain latest hour (hover to see other rain measurements)
** Current wind speed in m/s (hover to see current wind gust speed)